sensor_id;sensor_type;location;lat;lon;timestamp;temperature;humidity
56046;DHT22;41913;51.030;3.706;2023-06-14T00:01:45;26.00;76.20
56046;DHT22;41913;51.030;3.706;2023-06-14T00:04:11;26.00;76.30
56046;DHT22;41913;51.030;3.706;2023-06-14T00:06:38;26.00;76.30
56046;DHT22;41913;51.030;3.706;2023-06-14T00:09:04;26.00;76.30
56046;DHT22;41913;51.030;3.706;2023-06-14T00:11:33;26.00;76.20
56046;DHT22;41913;51.030;3.706;2023-06-14T00:13:58;26.00;76.30
56046;DHT22;41913;51.030;3.706;2023-06-14T00:16:24;25.90;76.30
56046;DHT22;41913;51.030;3.706;2023-06-14T00:18:50;25.90;76.20
56046;DHT22;41913;51.030;3.706;2023-06-14T00:21:17;25.90;76.20
56046;DHT22;41913;51.030;3.706;2023-06-14T00:23:43;25.90;76.30
56046;DHT22;41913;51.030;3.706;2023-06-14T00:26:09;25.90;76.90
56046;DHT22;41913;51.030;3.706;2023-06-14T00:28:35;25.90;76.20
56046;DHT22;41913;51.030;3.706;2023-06-14T00:31:00;25.90;76.10
56046;DHT22;41913;51.030;3.706;2023-06-14T00:33:26;25.90;76.80
56046;DHT22;41913;51.030;3.706;2023-06-14T00:35:52;25.80;76.00
56046;DHT22;41913;51.030;3.706;2023-06-14T00:38:20;25.80;76.00
56046;DHT22;41913;51.030;3.706;2023-06-14T00:40:46;25.80;75.80
56046;DHT22;41913;51.030;3.706;2023-06-14T00:43:12;25.80;75.90
56046;DHT22;41913;51.030;3.706;2023-06-14T00:45:37;25.80;76.10
56046;DHT22;41913;51.030;3.706;2023-06-14T00:48:04;25.80;76.10
56046;DHT22;41913;51.030;3.706;2023-06-14T00:50:32;25.80;76.00
56046;DHT22;41913;51.030;3.706;2023-06-14T00:52:59;25.80;75.90
56046;DHT22;41913;51.030;3.706;2023-06-14T00:55:26;25.90;75.80
56046;DHT22;41913;51.030;3.706;2023-06-14T00:57:54;25.80;75.70
56046;DHT22;41913;51.030;3.706;2023-06-14T01:00:21;25.90;76.30
56046;DHT22;41913;51.030;3.706;2023-06-14T01:02:46;25.90;75.60
56046;DHT22;41913;51.030;3.706;2023-06-14T01:05:12;25.90;75.60
56046;DHT22;41913;51.030;3.706;2023-06-14T01:13:10;25.80;74.90
56046;DHT22;41913;51.030;3.706;2023-06-14T01:15:36;25.80;74.90
56046;DHT22;41913;51.030;3.706;2023-06-14T01:18:03;25.70;75.00
56046;DHT22;41913;51.030;3.706;2023-06-14T01:20:32;25.70;75.00
56046;DHT22;41913;51.030;3.706;2023-06-14T01:22:59;25.70;75.00
56046;DHT22;41913;51.030;3.706;2023-06-14T01:25:25;25.70;75.30
56046;DHT22;41913;51.030;3.706;2023-06-14T01:27:55;25.70;74.80
56046;DHT22;41913;51.030;3.706;2023-06-14T01:30:23;25.60;74.60
56046;DHT22;41913;51.030;3.706;2023-06-14T01:32:51;25.60;74.60
56046;DHT22;41913;51.030;3.706;2023-06-14T01:35:17;25.60;74.40
56046;DHT22;41913;51.030;3.706;2023-06-14T01:37:43;25.60;75.00
56046;DHT22;41913;51.030;3.706;2023-06-14T01:40:12;25.60;74.90
56046;DHT22;41913;51.030;3.706;2023-06-14T01:42:39;25.60;74.50
56046;DHT22;41913;51.030;3.706;2023-06-14T01:45:09;25.60;74.50
56046;DHT22;41913;51.030;3.706;2023-06-14T01:47:36;25.60;74.60
56046;DHT22;41913;51.030;3.706;2023-06-14T01:50:03;25.60;74.40
56046;DHT22;41913;51.030;3.706;2023-06-14T01:52:29;25.50;74.60
56046;DHT22;41913;51.030;3.706;2023-06-14T01:54:55;25.50;74.30
56046;DHT22;41913;51.030;3.706;2023-06-14T01:57:22;25.50;74.40
56046;DHT22;41913;51.030;3.706;2023-06-14T01:59:48;25.50;74.30
56046;DHT22;41913;51.030;3.706;2023-06-14T02:02:15;25.40;74.30
56046;DHT22;41913;51.030;3.706;2023-06-14T02:04:41;25.40;74.20
56046;DHT22;41913;51.030;3.706;2023-06-14T02:07:08;25.40;74.10
56046;DHT22;41913;51.030;3.706;2023-06-14T02:09:34;25.40;74.00
56046;DHT22;41913;51.030;3.706;2023-06-14T02:12:00;25.40;74.00
56046;DHT22;41913;51.030;3.706;2023-06-14T02:14:26;25.40;74.00
56046;DHT22;41913;51.030;3.706;2023-06-14T02:16:52;25.30;73.80
56046;DHT22;41913;51.030;3.706;2023-06-14T02:19:19;25.30;74.60
56046;DHT22;41913;51.030;3.706;2023-06-14T02:21:46;25.30;74.00
56046;DHT22;41913;51.030;3.706;2023-06-14T02:24:13;25.30;73.60
56046;DHT22;41913;51.030;3.706;2023-06-14T02:26:38;25.30;73.60
56046;DHT22;41913;51.030;3.706;2023-06-14T02:29:05;25.30;73.90
56046;DHT22;41913;51.030;3.706;2023-06-14T02:31:32;25.20;73.50
56046;DHT22;41913;51.030;3.706;2023-06-14T02:33:58;25.20;73.60
56046;DHT22;41913;51.030;3.706;2023-06-14T02:36:24;25.20;73.40
56046;DHT22;41913;51.030;3.706;2023-06-14T02:38:50;25.20;73.20
56046;DHT22;41913;51.030;3.706;2023-06-14T02:41:16;25.20;73.10
56046;DHT22;41913;51.030;3.706;2023-06-14T02:43:42;25.20;73.10
56046;DHT22;41913;51.030;3.706;2023-06-14T02:46:08;25.20;73.00
56046;DHT22;41913;51.030;3.706;2023-06-14T02:48:34;25.10;72.80
56046;DHT22;41913;51.030;3.706;2023-06-14T02:51:00;25.10;72.80
56046;DHT22;41913;51.030;3.706;2023-06-14T02:53:25;25.10;72.80
56046;DHT22;41913;51.030;3.706;2023-06-14T02:55:51;25.10;73.10
56046;DHT22;41913;51.030;3.706;2023-06-14T02:58:17;25.00;72.60
56046;DHT22;41913;51.030;3.706;2023-06-14T03:00:44;25.00;72.70
56046;DHT22;41913;51.030;3.706;2023-06-14T03:03:10;25.00;72.50
56046;DHT22;41913;51.030;3.706;2023-06-14T03:05:48;25.00;72.20
56046;DHT22;41913;51.030;3.706;2023-06-14T03:08:18;25.00;72.10
56046;DHT22;41913;51.030;3.706;2023-06-14T03:10:49;25.00;72.10
56046;DHT22;41913;51.030;3.706;2023-06-14T03:13:15;25.00;72.30
56046;DHT22;41913;51.030;3.706;2023-06-14T03:15:42;24.90;72.10
56046;DHT22;41913;51.030;3.706;2023-06-14T03:18:09;24.90;72.10
56046;DHT22;41913;51.030;3.706;2023-06-14T03:20:35;24.90;71.60
56046;DHT22;41913;51.030;3.706;2023-06-14T03:23:02;24.90;72.00
56046;DHT22;41913;51.030;3.706;2023-06-14T03:25:29;24.90;71.40
56046;DHT22;41913;51.030;3.706;2023-06-14T03:27:55;24.90;71.50
56046;DHT22;41913;51.030;3.706;2023-06-14T03:30:21;24.90;71.30
56046;DHT22;41913;51.030;3.706;2023-06-14T03:32:47;24.90;71.30
56046;DHT22;41913;51.030;3.706;2023-06-14T03:35:12;24.80;71.20
56046;DHT22;41913;51.030;3.706;2023-06-14T03:37:45;24.90;71.30
56046;DHT22;41913;51.030;3.706;2023-06-14T03:40:13;24.80;70.90
56046;DHT22;41913;51.030;3.706;2023-06-14T03:42:39;24.80;71.20
56046;DHT22;41913;51.030;3.706;2023-06-14T03:45:06;24.80;71.10
56046;DHT22;41913;51.030;3.706;2023-06-14T03:47:32;24.80;71.00
56046;DHT22;41913;51.030;3.706;2023-06-14T03:49:58;24.80;71.10
56046;DHT22;41913;51.030;3.706;2023-06-14T03:52:25;24.80;70.70
56046;DHT22;41913;51.030;3.706;2023-06-14T03:54:51;24.70;70.70
56046;DHT22;41913;51.030;3.706;2023-06-14T03:57:17;24.80;70.50
56046;DHT22;41913;51.030;3.706;2023-06-14T03:59:43;24.70;70.30
56046;DHT22;41913;51.030;3.706;2023-06-14T04:02:09;24.70;70.40
56046;DHT22;41913;51.030;3.706;2023-06-14T04:04:35;24.70;70.40
56046;DHT22;41913;51.030;3.706;2023-06-14T04:07:01;24.70;70.10
56046;DHT22;41913;51.030;3.706;2023-06-14T04:09:31;24.70;70.80
56046;DHT22;41913;51.030;3.706;2023-06-14T04:11:57;24.70;69.90
56046;DHT22;41913;51.030;3.706;2023-06-14T04:14:23;24.70;69.90
56046;DHT22;41913;51.030;3.706;2023-06-14T04:16:49;24.60;69.90
56046;DHT22;41913;51.030;3.706;2023-06-14T04:19:15;24.60;69.70
56046;DHT22;41913;51.030;3.706;2023-06-14T04:21:41;24.60;70.00
56046;DHT22;41913;51.030;3.706;2023-06-14T04:24:07;24.60;69.50
56046;DHT22;41913;51.030;3.706;2023-06-14T04:26:39;24.60;69.10
56046;DHT22;41913;51.030;3.706;2023-06-14T04:29:05;24.60;69.30
56046;DHT22;41913;51.030;3.706;2023-06-14T04:31:32;24.60;69.30
56046;DHT22;41913;51.030;3.706;2023-06-14T04:34:03;24.60;69.30
56046;DHT22;41913;51.030;3.706;2023-06-14T04:36:33;24.50;69.10
56046;DHT22;41913;51.030;3.706;2023-06-14T04:39:07;24.60;69.30
56046;DHT22;41913;51.030;3.706;2023-06-14T04:41:33;24.50;69.40
56046;DHT22;41913;51.030;3.706;2023-06-14T04:44:01;24.50;68.90
56046;DHT22;41913;51.030;3.706;2023-06-14T04:46:30;24.50;68.90
56046;DHT22;41913;51.030;3.706;2023-06-14T04:48:57;24.50;69.30
56046;DHT22;41913;51.030;3.706;2023-06-14T04:51:23;24.50;69.50
56046;DHT22;41913;51.030;3.706;2023-06-14T04:53:56;24.50;69.30
56046;DHT22;41913;51.030;3.706;2023-06-14T04:56:26;24.50;69.20
56046;DHT22;41913;51.030;3.706;2023-06-14T04:58:52;24.50;68.50
56046;DHT22;41913;51.030;3.706;2023-06-14T05:01:20;24.50;68.80
56046;DHT22;41913;51.030;3.706;2023-06-14T05:03:46;24.50;69.00
56046;DHT22;41913;51.030;3.706;2023-06-14T05:06:14;24.50;69.40
56046;DHT22;41913;51.030;3.706;2023-06-14T05:08:41;24.50;69.70
56046;DHT22;41913;51.030;3.706;2023-06-14T05:11:06;24.60;70.00
56046;DHT22;41913;51.030;3.706;2023-06-14T05:13:32;24.60;70.00
56046;DHT22;41913;51.030;3.706;2023-06-14T05:15:58;24.60;70.00
56046;DHT22;41913;51.030;3.706;2023-06-14T05:18:25;24.70;70.00
56046;DHT22;41913;51.030;3.706;2023-06-14T05:20:51;24.70;69.80
56046;DHT22;41913;51.030;3.706;2023-06-14T05:23:17;24.70;69.90
56046;DHT22;41913;51.030;3.706;2023-06-14T05:25:43;24.70;69.70
56046;DHT22;41913;51.030;3.706;2023-06-14T05:28:09;24.70;69.90
56046;DHT22;41913;51.030;3.706;2023-06-14T05:30:35;24.70;69.50
56046;DHT22;41913;51.030;3.706;2023-06-14T05:33:01;24.70;68.50
56046;DHT22;41913;51.030;3.706;2023-06-14T05:35:27;24.70;68.40
56046;DHT22;41913;51.030;3.706;2023-06-14T05:37:53;24.70;67.30
56046;DHT22;41913;51.030;3.706;2023-06-14T05:40:19;24.70;67.40
56046;DHT22;41913;51.030;3.706;2023-06-14T05:42:45;24.60;67.80
56046;DHT22;41913;51.030;3.706;2023-06-14T05:45:11;24.60;68.10
56046;DHT22;41913;51.030;3.706;2023-06-14T05:47:37;24.60;70.30
56046;DHT22;41913;51.030;3.706;2023-06-14T05:50:03;24.60;70.70
56046;DHT22;41913;51.030;3.706;2023-06-14T05:52:29;24.50;70.00
56046;DHT22;41913;51.030;3.706;2023-06-14T05:54:56;24.50;69.90
56046;DHT22;41913;51.030;3.706;2023-06-14T05:57:22;24.40;69.50
56046;DHT22;41913;51.030;3.706;2023-06-14T05:59:48;24.30;69.60
56046;DHT22;41913;51.030;3.706;2023-06-14T06:02:14;24.30;69.50
56046;DHT22;41913;51.030;3.706;2023-06-14T06:04:40;24.30;69.50
56046;DHT22;41913;51.030;3.706;2023-06-14T06:07:06;24.20;69.00
56046;DHT22;41913;51.030;3.706;2023-06-14T06:09:32;24.20;69.40
56046;DHT22;41913;51.030;3.706;2023-06-14T06:11:58;24.20;69.10
56046;DHT22;41913;51.030;3.706;2023-06-14T06:14:24;24.30;69.30
56046;DHT22;41913;51.030;3.706;2023-06-14T06:16:50;24.20;69.40
56046;DHT22;41913;51.030;3.706;2023-06-14T06:19:18;24.20;69.20
56046;DHT22;41913;51.030;3.706;2023-06-14T06:21:44;24.20;69.40
56046;DHT22;41913;51.030;3.706;2023-06-14T06:24:09;24.20;69.40
56046;DHT22;41913;51.030;3.706;2023-06-14T06:26:35;24.20;69.80
56046;DHT22;41913;51.030;3.706;2023-06-14T06:29:01;24.20;69.80
56046;DHT22;41913;51.030;3.706;2023-06-14T06:31:27;24.20;69.60
56046;DHT22;41913;51.030;3.706;2023-06-14T06:33:54;24.20;69.90
56046;DHT22;41913;51.030;3.706;2023-06-14T06:36:20;24.30;69.70
56046;DHT22;41913;51.030;3.706;2023-06-14T06:38:47;24.30;69.80
56046;DHT22;41913;51.030;3.706;2023-06-14T06:41:13;24.30;69.60
56046;DHT22;41913;51.030;3.706;2023-06-14T06:43:39;24.40;70.40
56046;DHT22;41913;51.030;3.706;2023-06-14T06:46:05;24.40;70.70
56046;DHT22;41913;51.030;3.706;2023-06-14T06:48:31;24.40;70.00
56046;DHT22;41913;51.030;3.706;2023-06-14T06:50:57;24.50;69.80
56046;DHT22;41913;51.030;3.706;2023-06-14T06:53:22;24.50;70.10
56046;DHT22;41913;51.030;3.706;2023-06-14T06:55:48;24.50;69.50
56046;DHT22;41913;51.030;3.706;2023-06-14T06:58:14;24.50;70.30
56046;DHT22;41913;51.030;3.706;2023-06-14T07:00:40;24.60;69.20
56046;DHT22;41913;51.030;3.706;2023-06-14T07:03:06;24.60;70.10
56046;DHT22;41913;51.030;3.706;2023-06-14T07:05:32;24.60;70.00
56046;DHT22;41913;51.030;3.706;2023-06-14T07:07:58;24.60;69.80
56046;DHT22;41913;51.030;3.706;2023-06-14T07:10:24;24.70;69.80
56046;DHT22;41913;51.030;3.706;2023-06-14T07:12:51;24.70;69.80
56046;DHT22;41913;51.030;3.706;2023-06-14T07:15:16;24.70;70.10
56046;DHT22;41913;51.030;3.706;2023-06-14T07:17:42;24.80;68.80
56046;DHT22;41913;51.030;3.706;2023-06-14T07:20:08;24.80;69.50
56046;DHT22;41913;51.030;3.706;2023-06-14T07:22:42;24.80;70.00
56046;DHT22;41913;51.030;3.706;2023-06-14T07:25:11;24.80;70.80
56046;DHT22;41913;51.030;3.706;2023-06-14T07:27:41;24.90;70.30
56046;DHT22;41913;51.030;3.706;2023-06-14T07:30:08;24.90;69.30
56046;DHT22;41913;51.030;3.706;2023-06-14T07:32:34;25.00;69.80
56046;DHT22;41913;51.030;3.706;2023-06-14T07:35:00;25.00;69.60
56046;DHT22;41913;51.030;3.706;2023-06-14T07:37:25;25.10;69.50
56046;DHT22;41913;51.030;3.706;2023-06-14T07:39:51;25.10;69.40
56046;DHT22;41913;51.030;3.706;2023-06-14T07:42:17;25.10;68.80
56046;DHT22;41913;51.030;3.706;2023-06-14T07:44:43;25.10;69.00
56046;DHT22;41913;51.030;3.706;2023-06-14T07:47:08;25.10;69.90
56046;DHT22;41913;51.030;3.706;2023-06-14T07:49:34;25.10;68.60
56046;DHT22;41913;51.030;3.706;2023-06-14T07:52:00;25.20;69.50
56046;DHT22;41913;51.030;3.706;2023-06-14T07:54:25;25.20;69.70
56046;DHT22;41913;51.030;3.706;2023-06-14T07:56:52;25.20;69.70
56046;DHT22;41913;51.030;3.706;2023-06-14T07:59:18;25.30;68.70
56046;DHT22;41913;51.030;3.706;2023-06-14T08:01:43;25.30;68.30
56046;DHT22;41913;51.030;3.706;2023-06-14T08:04:14;25.30;68.60
56046;DHT22;41913;51.030;3.706;2023-06-14T08:06:41;25.30;68.60
56046;DHT22;41913;51.030;3.706;2023-06-14T08:09:10;25.30;68.50
56046;DHT22;41913;51.030;3.706;2023-06-14T08:11:36;25.30;68.80
56046;DHT22;41913;51.030;3.706;2023-06-14T08:14:02;25.30;68.60
56046;DHT22;41913;51.030;3.706;2023-06-14T08:16:28;25.30;68.90
56046;DHT22;41913;51.030;3.706;2023-06-14T08:18:54;25.40;69.30
56046;DHT22;41913;51.030;3.706;2023-06-14T08:21:20;25.40;69.30
56046;DHT22;41913;51.030;3.706;2023-06-14T08:23:46;25.40;69.50
56046;DHT22;41913;51.030;3.706;2023-06-14T08:26:12;25.30;69.50
56046;DHT22;41913;51.030;3.706;2023-06-14T08:28:37;25.40;69.70
56046;DHT22;41913;51.030;3.706;2023-06-14T08:31:03;25.40;70.30
56046;DHT22;41913;51.030;3.706;2023-06-14T08:33:28;25.30;70.50
56046;DHT22;41913;51.030;3.706;2023-06-14T08:35:54;25.30;69.70
56046;DHT22;41913;51.030;3.706;2023-06-14T08:38:20;25.30;70.50
56046;DHT22;41913;51.030;3.706;2023-06-14T08:40:50;25.40;70.10
56046;DHT22;41913;51.030;3.706;2023-06-14T08:43:17;25.30;69.80
56046;DHT22;41913;51.030;3.706;2023-06-14T08:45:46;25.30;70.80
56046;DHT22;41913;51.030;3.706;2023-06-14T08:48:12;25.30;71.30
56046;DHT22;41913;51.030;3.706;2023-06-14T08:50:43;25.40;71.70
56046;DHT22;41913;51.030;3.706;2023-06-14T08:53:14;25.30;70.90
56046;DHT22;41913;51.030;3.706;2023-06-14T08:55:45;25.40;71.10
56046;DHT22;41913;51.030;3.706;2023-06-14T08:58:13;25.40;71.70
56046;DHT22;41913;51.030;3.706;2023-06-14T09:00:39;25.40;71.60
56046;DHT22;41913;51.030;3.706;2023-06-14T09:03:07;25.40;71.30
56046;DHT22;41913;51.030;3.706;2023-06-14T09:05:39;25.40;72.00
56046;DHT22;41913;51.030;3.706;2023-06-14T09:08:05;25.40;71.40
56046;DHT22;41913;51.030;3.706;2023-06-14T09:10:32;25.40;72.90
56046;DHT22;41913;51.030;3.706;2023-06-14T09:13:03;25.40;70.90
56046;DHT22;41913;51.030;3.706;2023-06-14T09:15:30;25.40;71.10
56046;DHT22;41913;51.030;3.706;2023-06-14T09:17:56;25.40;71.50
56046;DHT22;41913;51.030;3.706;2023-06-14T09:20:24;25.40;72.10
56046;DHT22;41913;51.030;3.706;2023-06-14T09:22:50;25.40;72.10
56046;DHT22;41913;51.030;3.706;2023-06-14T09:25:16;25.40;71.50
56046;DHT22;41913;51.030;3.706;2023-06-14T09:27:43;25.40;71.50
56046;DHT22;41913;51.030;3.706;2023-06-14T09:30:11;25.40;71.70
56046;DHT22;41913;51.030;3.706;2023-06-14T09:32:38;25.40;72.10
56046;DHT22;41913;51.030;3.706;2023-06-14T09:35:07;25.40;72.40
56046;DHT22;41913;51.030;3.706;2023-06-14T09:37:34;25.40;72.40
56046;DHT22;41913;51.030;3.706;2023-06-14T09:40:00;25.40;72.20
56046;DHT22;41913;51.030;3.706;2023-06-14T09:42:27;25.40;71.60
56046;DHT22;41913;51.030;3.706;2023-06-14T09:44:56;25.40;72.20
56046;DHT22;41913;51.030;3.706;2023-06-14T09:47:23;25.40;72.30
56046;DHT22;41913;51.030;3.706;2023-06-14T09:49:50;25.40;72.30
56046;DHT22;41913;51.030;3.706;2023-06-14T09:52:19;25.40;72.90
56046;DHT22;41913;51.030;3.706;2023-06-14T09:54:46;25.40;72.80
56046;DHT22;41913;51.030;3.706;2023-06-14T09:57:15;25.40;73.20
56046;DHT22;41913;51.030;3.706;2023-06-14T09:59:45;25.40;73.10
56046;DHT22;41913;51.030;3.706;2023-06-14T10:02:35;25.40;73.20
56046;DHT22;41913;51.030;3.706;2023-06-14T10:05:07;25.40;73.10
56046;DHT22;41913;51.030;3.706;2023-06-14T10:07:53;25.40;73.50
56046;DHT22;41913;51.030;3.706;2023-06-14T10:10:21;25.50;73.50
56046;DHT22;41913;51.030;3.706;2023-06-14T10:12:47;25.40;73.20
56046;DHT22;41913;51.030;3.706;2023-06-14T10:18:29;25.50;73.90
56046;DHT22;41913;51.030;3.706;2023-06-14T10:21:08;25.40;73.60
56046;DHT22;41913;51.030;3.706;2023-06-14T10:23:40;25.50;73.50
56046;DHT22;41913;51.030;3.706;2023-06-14T10:26:07;25.50;73.10
56046;DHT22;41913;51.030;3.706;2023-06-14T10:28:32;25.50;73.80
56046;DHT22;41913;51.030;3.706;2023-06-14T10:31:09;25.50;74.00
56046;DHT22;41913;51.030;3.706;2023-06-14T10:33:39;25.50;73.60
56046;DHT22;41913;51.030;3.706;2023-06-14T10:39:07;25.50;73.60
56046;DHT22;41913;51.030;3.706;2023-06-14T10:41:40;25.50;73.80
56046;DHT22;41913;51.030;3.706;2023-06-14T10:44:31;25.60;74.40
56046;DHT22;41913;51.030;3.706;2023-06-14T10:47:00;25.50;74.10
56046;DHT22;41913;51.030;3.706;2023-06-14T10:49:45;25.60;74.00
56046;DHT22;41913;51.030;3.706;2023-06-14T10:52:21;25.50;73.60
56046;DHT22;41913;51.030;3.706;2023-06-14T11:00:10;25.50;74.00
56046;DHT22;41913;51.030;3.706;2023-06-14T11:05:52;25.50;74.30
56046;DHT22;41913;51.030;3.706;2023-06-14T11:08:49;25.50;74.20
56046;DHT22;41913;51.030;3.706;2023-06-14T11:11:22;25.60;74.30
56046;DHT22;41913;51.030;3.706;2023-06-14T11:13:49;25.60;74.60
56046;DHT22;41913;51.030;3.706;2023-06-14T11:16:18;25.50;74.60
56046;DHT22;41913;51.030;3.706;2023-06-14T11:18:46;25.60;74.60
56046;DHT22;41913;51.030;3.706;2023-06-14T11:21:18;25.60;74.70
56046;DHT22;41913;51.030;3.706;2023-06-14T11:23:53;25.60;73.90
56046;DHT22;41913;51.030;3.706;2023-06-14T11:26:28;25.60;74.30
56046;DHT22;41913;51.030;3.706;2023-06-14T11:28:58;25.60;74.20
56046;DHT22;41913;51.030;3.706;2023-06-14T11:31:25;25.60;74.00
56046;DHT22;41913;51.030;3.706;2023-06-14T11:33:54;25.60;74.20
56046;DHT22;41913;51.030;3.706;2023-06-14T11:36:20;25.60;74.60
56046;DHT22;41913;51.030;3.706;2023-06-14T11:38:46;25.60;74.50
56046;DHT22;41913;51.030;3.706;2023-06-14T11:41:12;25.60;74.30
56046;DHT22;41913;51.030;3.706;2023-06-14T11:43:37;25.70;75.00
56046;DHT22;41913;51.030;3.706;2023-06-14T11:46:06;25.70;74.90
56046;DHT22;41913;51.030;3.706;2023-06-14T11:48:46;25.70;74.40
56046;DHT22;41913;51.030;3.706;2023-06-14T11:51:11;25.70;74.90
56046;DHT22;41913;51.030;3.706;2023-06-14T11:53:37;25.60;74.80
56046;DHT22;41913;51.030;3.706;2023-06-14T11:56:07;25.70;74.90
56046;DHT22;41913;51.030;3.706;2023-06-14T11:58:33;25.70;74.90
56046;DHT22;41913;51.030;3.706;2023-06-14T12:00:58;25.70;74.70
56046;DHT22;41913;51.030;3.706;2023-06-14T12:03:25;25.70;75.00
56046;DHT22;41913;51.030;3.706;2023-06-14T12:06:05;25.70;74.90
56046;DHT22;41913;51.030;3.706;2023-06-14T12:08:38;25.70;75.00
56046;DHT22;41913;51.030;3.706;2023-06-14T12:11:06;25.70;75.20
56046;DHT22;41913;51.030;3.706;2023-06-14T12:13:34;25.70;75.20
56046;DHT22;41913;51.030;3.706;2023-06-14T12:15:59;25.70;75.20
56046;DHT22;41913;51.030;3.706;2023-06-14T12:18:35;25.70;75.10
56046;DHT22;41913;51.030;3.706;2023-06-14T12:21:04;25.70;75.10
56046;DHT22;41913;51.030;3.706;2023-06-14T12:23:49;25.70;74.90
56046;DHT22;41913;51.030;3.706;2023-06-14T12:26:18;25.70;75.20
56046;DHT22;41913;51.030;3.706;2023-06-14T12:28:48;25.70;75.20
56046;DHT22;41913;51.030;3.706;2023-06-14T12:31:15;25.70;75.80
56046;DHT22;41913;51.030;3.706;2023-06-14T12:33:41;25.70;75.40
56046;DHT22;41913;51.030;3.706;2023-06-14T12:36:08;25.70;75.20
56046;DHT22;41913;51.030;3.706;2023-06-14T12:38:36;25.80;75.20
56046;DHT22;41913;51.030;3.706;2023-06-14T12:41:02;25.70;75.00
56046;DHT22;41913;51.030;3.706;2023-06-14T12:43:28;25.70;75.20
56046;DHT22;41913;51.030;3.706;2023-06-14T12:45:53;25.70;75.40
56046;DHT22;41913;51.030;3.706;2023-06-14T12:48:20;25.70;75.30
56046;DHT22;41913;51.030;3.706;2023-06-14T12:50:47;25.70;75.40
56046;DHT22;41913;51.030;3.706;2023-06-14T12:53:13;25.80;75.50
56046;DHT22;41913;51.030;3.706;2023-06-14T12:55:38;25.80;75.30
56046;DHT22;41913;51.030;3.706;2023-06-14T12:58:04;25.80;75.30
56046;DHT22;41913;51.030;3.706;2023-06-14T13:00:30;25.80;75.50
56046;DHT22;41913;51.030;3.706;2023-06-14T13:02:56;25.80;75.40
56046;DHT22;41913;51.030;3.706;2023-06-14T13:05:22;25.80;75.40
56046;DHT22;41913;51.030;3.706;2023-06-14T13:07:48;25.80;75.40
56046;DHT22;41913;51.030;3.706;2023-06-14T13:10:14;25.80;75.40
56046;DHT22;41913;51.030;3.706;2023-06-14T13:12:40;25.80;76.10
56046;DHT22;41913;51.030;3.706;2023-06-14T13:15:06;25.90;75.50
56046;DHT22;41913;51.030;3.706;2023-06-14T13:17:34;25.80;75.50
56046;DHT22;41913;51.030;3.706;2023-06-14T13:20:07;25.80;75.60
56046;DHT22;41913;51.030;3.706;2023-06-14T13:22:34;25.80;75.50
56046;DHT22;41913;51.030;3.706;2023-06-14T13:24:59;25.80;75.40
56046;DHT22;41913;51.030;3.706;2023-06-14T13:27:26;25.90;75.70
56046;DHT22;41913;51.030;3.706;2023-06-14T13:29:52;25.90;75.70
56046;DHT22;41913;51.030;3.706;2023-06-14T13:32:18;25.90;75.60
56046;DHT22;41913;51.030;3.706;2023-06-14T13:34:43;25.80;75.60
56046;DHT22;41913;51.030;3.706;2023-06-14T13:37:09;25.90;75.60
56046;DHT22;41913;51.030;3.706;2023-06-14T13:39:35;25.90;75.70
56046;DHT22;41913;51.030;3.706;2023-06-14T13:42:03;25.90;75.70
56046;DHT22;41913;51.030;3.706;2023-06-14T13:44:29;25.90;75.70
56046;DHT22;41913;51.030;3.706;2023-06-14T13:46:55;25.90;75.70
56046;DHT22;41913;51.030;3.706;2023-06-14T13:49:20;25.90;75.70
56046;DHT22;41913;51.030;3.706;2023-06-14T13:51:46;25.90;75.80
56046;DHT22;41913;51.030;3.706;2023-06-14T13:54:17;25.90;75.70
56046;DHT22;41913;51.030;3.706;2023-06-14T13:56:44;25.90;75.70
56046;DHT22;41913;51.030;3.706;2023-06-14T13:59:10;25.90;75.70
56046;DHT22;41913;51.030;3.706;2023-06-14T14:01:36;25.90;75.70
56046;DHT22;41913;51.030;3.706;2023-06-14T14:04:02;26.00;75.90
56046;DHT22;41913;51.030;3.706;2023-06-14T14:06:29;26.00;75.90
56046;DHT22;41913;51.030;3.706;2023-06-14T14:08:54;26.00;75.80
56046;DHT22;41913;51.030;3.706;2023-06-14T14:11:20;26.00;75.90
56046;DHT22;41913;51.030;3.706;2023-06-14T14:13:46;26.00;76.00
56046;DHT22;41913;51.030;3.706;2023-06-14T14:16:13;26.00;75.90
56046;DHT22;41913;51.030;3.706;2023-06-14T14:18:39;26.00;76.00
56046;DHT22;41913;51.030;3.706;2023-06-14T14:21:05;26.00;76.00
56046;DHT22;41913;51.030;3.706;2023-06-14T14:23:31;26.00;76.00
56046;DHT22;41913;51.030;3.706;2023-06-14T14:25:57;26.00;76.10
56046;DHT22;41913;51.030;3.706;2023-06-14T14:28:23;26.00;76.00
56046;DHT22;41913;51.030;3.706;2023-06-14T14:30:48;26.00;75.90
56046;DHT22;41913;51.030;3.706;2023-06-14T14:33:15;26.00;76.10
56046;DHT22;41913;51.030;3.706;2023-06-14T14:35:43;26.00;76.10
56046;DHT22;41913;51.030;3.706;2023-06-14T14:38:11;26.00;76.00
56046;DHT22;41913;51.030;3.706;2023-06-14T14:40:37;26.00;76.10
56046;DHT22;41913;51.030;3.706;2023-06-14T14:43:03;26.00;76.10
56046;DHT22;41913;51.030;3.706;2023-06-14T14:45:28;26.00;76.10
56046;DHT22;41913;51.030;3.706;2023-06-14T14:47:54;26.00;76.10
56046;DHT22;41913;51.030;3.706;2023-06-14T14:50:20;26.00;76.10
56046;DHT22;41913;51.030;3.706;2023-06-14T14:52:46;26.00;76.10
56046;DHT22;41913;51.030;3.706;2023-06-14T14:55:11;26.00;76.10
56046;DHT22;41913;51.030;3.706;2023-06-14T14:57:37;26.00;76.10
56046;DHT22;41913;51.030;3.706;2023-06-14T15:00:06;26.00;76.10
56046;DHT22;41913;51.030;3.706;2023-06-14T15:02:32;26.00;76.10
56046;DHT22;41913;51.030;3.706;2023-06-14T15:04:58;26.10;76.20
56046;DHT22;41913;51.030;3.706;2023-06-14T15:07:30;26.10;76.20
56046;DHT22;41913;51.030;3.706;2023-06-14T15:09:57;26.10;76.10
56046;DHT22;41913;51.030;3.706;2023-06-14T15:12:22;26.10;76.30
56046;DHT22;41913;51.030;3.706;2023-06-14T15:14:52;26.10;76.90
56046;DHT22;41913;51.030;3.706;2023-06-14T15:17:19;26.10;76.10
56046;DHT22;41913;51.030;3.706;2023-06-14T15:19:46;26.10;76.20
56046;DHT22;41913;51.030;3.706;2023-06-14T15:22:13;26.10;76.10
56046;DHT22;41913;51.030;3.706;2023-06-14T15:24:43;26.10;76.20
56046;DHT22;41913;51.030;3.706;2023-06-14T15:27:09;26.10;76.20
56046;DHT22;41913;51.030;3.706;2023-06-14T15:29:36;26.10;76.20
56046;DHT22;41913;51.030;3.706;2023-06-14T15:32:02;26.10;76.30
56046;DHT22;41913;51.030;3.706;2023-06-14T15:34:27;26.10;76.20
56046;DHT22;41913;51.030;3.706;2023-06-14T15:36:53;26.10;76.20
56046;DHT22;41913;51.030;3.706;2023-06-14T15:39:20;26.10;76.20
56046;DHT22;41913;51.030;3.706;2023-06-14T15:41:45;26.10;76.20
56046;DHT22;41913;51.030;3.706;2023-06-14T15:44:11;26.20;76.20
56046;DHT22;41913;51.030;3.706;2023-06-14T15:46:37;26.20;76.20
56046;DHT22;41913;51.030;3.706;2023-06-14T15:49:09;26.20;76.20
56046;DHT22;41913;51.030;3.706;2023-06-14T15:51:36;26.20;76.30